sensor_id;sensor_type;location;lat;lon;timestamp;temperature;humidity
71514;DHT22;59335;46.652;21.272;2022-09-27T00:01:31;21.58;58.00
71514;DHT22;59335;46.652;21.272;2022-09-27T00:04:33;21.58;58.01
71514;DHT22;59335;46.652;21.272;2022-09-27T00:07:36;21.61;57.97
71514;DHT22;59335;46.652;21.272;2022-09-27T00:10:39;21.57;57.98
71514;DHT22;59335;46.652;21.272;2022-09-27T00:13:41;21.59;57.88
71514;DHT22;59335;46.652;21.272;2022-09-27T00:16:44;21.59;57.85
71514;DHT22;59335;46.652;21.272;2022-09-27T00:19:47;21.58;57.96
71514;DHT22;59335;46.652;21.272;2022-09-27T00:22:50;21.55;58.00
71514;DHT22;59335;46.652;21.272;2022-09-27T00:25:57;21.55;57.92
71514;DHT22;59335;46.652;21.272;2022-09-27T00:29:04;21.54;57.94
71514;DHT22;59335;46.652;21.272;2022-09-27T00:32:07;21.58;57.87
71514;DHT22;59335;46.652;21.272;2022-09-27T00:35:10;21.58;57.83
71514;DHT22;59335;46.652;21.272;2022-09-27T00:38:12;21.58;57.78
71514;DHT22;59335;46.652;21.272;2022-09-27T00:41:18;21.57;57.84
71514;DHT22;59335;46.652;21.272;2022-09-27T00:47:38;21.54;57.88
71514;DHT22;59335;46.652;21.272;2022-09-27T00:50:43;21.57;57.79
71514;DHT22;59335;46.652;21.272;2022-09-27T00:53:50;21.54;57.83
71514;DHT22;59335;46.652;21.272;2022-09-27T00:56:55;21.55;57.69
71514;DHT22;59335;46.652;21.272;2022-09-27T01:00:06;21.57;57.75
71514;DHT22;59335;46.652;21.272;2022-09-27T01:03:22;21.55;57.65
71514;DHT22;59335;46.652;21.272;2022-09-27T01:06:28;21.58;57.62
71514;DHT22;59335;46.652;21.272;2022-09-27T01:09:31;21.54;57.64
71514;DHT22;59335;46.652;21.272;2022-09-27T01:12:38;21.52;57.73
71514;DHT22;59335;46.652;21.272;2022-09-27T01:15:54;21.55;57.60
71514;DHT22;59335;46.652;21.272;2022-09-27T01:19:17;21.55;57.61
71514;DHT22;59335;46.652;21.272;2022-09-27T01:22:51;21.57;57.60
71514;DHT22;59335;46.652;21.272;2022-09-27T01:44:13;21.54;57.55
71514;DHT22;59335;46.652;21.272;2022-09-27T01:47:25;21.54;57.60
71514;DHT22;59335;46.652;21.272;2022-09-27T01:50:37;21.51;57.65
71514;DHT22;59335;46.652;21.272;2022-09-27T01:53:51;21.55;57.54
71514;DHT22;59335;46.652;21.272;2022-09-27T01:57:25;21.52;57.46
71514;DHT22;59335;46.652;21.272;2022-09-27T02:00:29;21.54;57.51
71514;DHT22;59335;46.652;21.272;2022-09-27T02:03:40;21.52;57.51
71514;DHT22;59335;46.652;21.272;2022-09-27T02:07:13;21.55;57.41
71514;DHT22;59335;46.652;21.272;2022-09-27T02:10:23;21.54;57.37
71514;DHT22;59335;46.652;21.272;2022-09-27T02:13:38;21.54;57.42
71514;DHT22;59335;46.652;21.272;2022-09-27T02:20:55;21.52;57.42
71514;DHT22;59335;46.652;21.272;2022-09-27T02:24:02;21.55;57.42
71514;DHT22;59335;46.652;21.272;2022-09-27T02:27:11;21.52;57.37
71514;DHT22;59335;46.652;21.272;2022-09-27T02:30:16;21.51;57.38
71514;DHT22;59335;46.652;21.272;2022-09-27T02:33:27;21.50;57.47
71514;DHT22;59335;46.652;21.272;2022-09-27T02:36:32;21.54;57.45
71514;DHT22;59335;46.652;21.272;2022-09-27T02:39:35;21.52;57.32
71514;DHT22;59335;46.652;21.272;2022-09-27T02:42:41;21.54;57.32
71514;DHT22;59335;46.652;21.272;2022-09-27T02:56:00;21.52;57.24
71514;DHT22;59335;46.652;21.272;2022-09-27T03:03:28;21.55;57.22
71514;DHT22;59335;46.652;21.272;2022-09-27T03:06:34;21.51;57.18
71514;DHT22;59335;46.652;21.272;2022-09-27T03:09:47;21.54;57.18
71514;DHT22;59335;46.652;21.272;2022-09-27T03:12:50;21.48;57.19
71514;DHT22;59335;46.652;21.272;2022-09-27T03:15:54;21.50;57.13
71514;DHT22;59335;46.652;21.272;2022-09-27T03:19:20;21.47;57.15
71514;DHT22;59335;46.652;21.272;2022-09-27T03:22:42;21.51;57.09
71514;DHT22;59335;46.652;21.272;2022-09-27T03:25:45;21.48;57.15
71514;DHT22;59335;46.652;21.272;2022-09-27T03:28:47;21.47;57.15
71514;DHT22;59335;46.652;21.272;2022-09-27T03:31:50;21.48;57.14
71514;DHT22;59335;46.652;21.272;2022-09-27T03:35:16;21.48;57.15
71514;DHT22;59335;46.652;21.272;2022-09-27T03:38:19;21.48;57.21
71514;DHT22;59335;46.652;21.272;2022-09-27T03:41:21;21.45;57.08
71514;DHT22;59335;46.652;21.272;2022-09-27T03:44:24;21.44;57.08
71514;DHT22;59335;46.652;21.272;2022-09-27T03:47:27;21.47;57.06
71514;DHT22;59335;46.652;21.272;2022-09-27T03:50:30;21.44;57.01
71514;DHT22;59335;46.652;21.272;2022-09-27T03:53:33;21.50;57.00
71514;DHT22;59335;46.652;21.272;2022-09-27T03:56:36;21.48;56.94
71514;DHT22;59335;46.652;21.272;2022-09-27T03:59:39;21.50;57.00
71514;DHT22;59335;46.652;21.272;2022-09-27T04:03:00;21.48;56.96
71514;DHT22;59335;46.652;21.272;2022-09-27T04:06:03;21.47;56.94
71514;DHT22;59335;46.652;21.272;2022-09-27T04:09:13;21.48;56.90
71514;DHT22;59335;46.652;21.272;2022-09-27T04:12:30;21.47;56.96
71514;DHT22;59335;46.652;21.272;2022-09-27T04:15:32;21.50;56.91
71514;DHT22;59335;46.652;21.272;2022-09-27T04:18:50;21.52;56.82
71514;DHT22;59335;46.652;21.272;2022-09-27T04:22:11;21.48;56.83
71514;DHT22;59335;46.652;21.272;2022-09-27T04:25:15;21.50;56.88
71514;DHT22;59335;46.652;21.272;2022-09-27T04:28:17;21.48;56.83
71514;DHT22;59335;46.652;21.272;2022-09-27T04:31:20;21.47;56.83
71514;DHT22;59335;46.652;21.272;2022-09-27T04:34:45;21.48;56.91
71514;DHT22;59335;46.652;21.272;2022-09-27T04:38:26;21.45;56.91
71514;DHT22;59335;46.652;21.272;2022-09-27T04:41:29;21.45;56.96
71514;DHT22;59335;46.652;21.272;2022-09-27T04:44:34;21.47;56.96
71514;DHT22;59335;46.652;21.272;2022-09-27T04:47:41;21.45;56.90
71514;DHT22;59335;46.652;21.272;2022-09-27T04:50:45;21.45;56.81
71514;DHT22;59335;46.652;21.272;2022-09-27T04:53:47;21.47;56.92
71514;DHT22;59335;46.652;21.272;2022-09-27T04:56:50;21.47;56.84
71514;DHT22;59335;46.652;21.272;2022-09-27T04:59:53;21.45;56.79
71514;DHT22;59335;46.652;21.272;2022-09-27T05:02:56;21.45;56.82
71514;DHT22;59335;46.652;21.272;2022-09-27T05:06:13;21.44;56.93
71514;DHT22;59335;46.652;21.272;2022-09-27T05:09:16;21.45;56.93
71514;DHT22;59335;46.652;21.272;2022-09-27T05:12:27;21.47;56.88
71514;DHT22;59335;46.652;21.272;2022-09-27T05:15:35;21.47;56.99
71514;DHT22;59335;46.652;21.272;2022-09-27T05:19:14;21.42;56.99
71514;DHT22;59335;46.652;21.272;2022-09-27T05:22:42;21.44;56.88
71514;DHT22;59335;46.652;21.272;2022-09-27T05:25:45;21.44;56.95
71514;DHT22;59335;46.652;21.272;2022-09-27T05:28:47;21.47;56.81
71514;DHT22;59335;46.652;21.272;2022-09-27T05:31:50;21.45;56.93
71514;DHT22;59335;46.652;21.272;2022-09-27T05:34:53;21.50;57.10
71514;DHT22;59335;46.652;21.272;2022-09-27T05:37:58;21.44;57.35
71514;DHT22;59335;46.652;21.272;2022-09-27T05:41:08;21.44;57.30
71514;DHT22;59335;46.652;21.272;2022-09-27T05:44:11;21.42;57.21
71514;DHT22;59335;46.652;21.272;2022-09-27T05:47:25;21.47;57.11
71514;DHT22;59335;46.652;21.272;2022-09-27T05:50:28;21.51;57.13
71514;DHT22;59335;46.652;21.272;2022-09-27T05:53:31;21.52;57.04
71514;DHT22;59335;46.652;21.272;2022-09-27T05:56:37;21.48;57.30
71514;DHT22;59335;46.652;21.272;2022-09-27T05:59:59;21.54;57.36
71514;DHT22;59335;46.652;21.272;2022-09-27T06:03:17;21.52;57.33
71514;DHT22;59335;46.652;21.272;2022-09-27T06:06:55;21.52;57.50
71514;DHT22;59335;46.652;21.272;2022-09-27T06:10:05;21.52;57.26
71514;DHT22;59335;46.652;21.272;2022-09-27T06:13:13;21.54;57.23
71514;DHT22;59335;46.652;21.272;2022-09-27T06:16:17;21.48;57.11
71514;DHT22;59335;46.652;21.272;2022-09-27T06:19:20;21.50;56.99
71514;DHT22;59335;46.652;21.272;2022-09-27T06:22:23;21.50;57.48
71514;DHT22;59335;46.652;21.272;2022-09-27T06:25:34;21.52;57.47
71514;DHT22;59335;46.652;21.272;2022-09-27T06:28:47;21.50;57.46
71514;DHT22;59335;46.652;21.272;2022-09-27T06:31:50;21.52;57.30
71514;DHT22;59335;46.652;21.272;2022-09-27T06:35:22;21.50;57.20
71514;DHT22;59335;46.652;21.272;2022-09-27T06:38:26;21.54;57.21
71514;DHT22;59335;46.652;21.272;2022-09-27T06:41:45;21.54;57.16
71514;DHT22;59335;46.652;21.272;2022-09-27T06:45:00;21.58;57.19
71514;DHT22;59335;46.652;21.272;2022-09-27T06:48:24;21.61;57.09
71514;DHT22;59335;46.652;21.272;2022-09-27T06:51:39;21.68;57.35
71514;DHT22;59335;46.652;21.272;2022-09-27T06:54:42;21.71;56.63
71514;DHT22;59335;46.652;21.272;2022-09-27T06:57:46;21.77;57.79
71514;DHT22;59335;46.652;21.272;2022-09-27T07:01:08;21.81;58.37
71514;DHT22;59335;46.652;21.272;2022-09-27T07:04:43;21.82;58.00
71514;DHT22;59335;46.652;21.272;2022-09-27T07:08:12;21.85;57.97
71514;DHT22;59335;46.652;21.272;2022-09-27T07:11:16;21.82;58.05
71514;DHT22;59335;46.652;21.272;2022-09-27T07:14:20;21.83;57.67
71514;DHT22;59335;46.652;21.272;2022-09-27T07:17:24;21.83;57.84
71514;DHT22;59335;46.652;21.272;2022-09-27T07:20:28;21.85;57.57
71514;DHT22;59335;46.652;21.272;2022-09-27T07:23:32;21.86;57.57
71514;DHT22;59335;46.652;21.272;2022-09-27T07:26:35;21.93;57.93
71514;DHT22;59335;46.652;21.272;2022-09-27T07:29:40;21.90;57.86
71514;DHT22;59335;46.652;21.272;2022-09-27T07:32:43;21.93;57.69
71514;DHT22;59335;46.652;21.272;2022-09-27T07:35:48;21.90;57.48
71514;DHT22;59335;46.652;21.272;2022-09-27T07:38:52;21.92;57.55
71514;DHT22;59335;46.652;21.272;2022-09-27T07:41:55;21.88;57.42
71514;DHT22;59335;46.652;21.272;2022-09-27T07:44:59;21.89;57.23
71514;DHT22;59335;46.652;21.272;2022-09-27T07:48:23;21.92;57.78
71514;DHT22;59335;46.652;21.272;2022-09-27T07:51:55;21.93;58.22
71514;DHT22;59335;46.652;21.272;2022-09-27T07:55:25;21.93;58.19
71514;DHT22;59335;46.652;21.272;2022-09-27T07:58:43;21.96;58.79
71514;DHT22;59335;46.652;21.272;2022-09-27T08:01:53;22.03;59.11
71514;DHT22;59335;46.652;21.272;2022-09-27T08:05:00;22.02;58.87
71514;DHT22;59335;46.652;21.272;2022-09-27T08:08:03;22.02;58.41
71514;DHT22;59335;46.652;21.272;2022-09-27T08:11:15;21.99;58.47
71514;DHT22;59335;46.652;21.272;2022-09-27T08:14:19;22.02;58.02
71514;DHT22;59335;46.652;21.272;2022-09-27T08:17:24;22.03;57.97
71514;DHT22;59335;46.652;21.272;2022-09-27T08:20:48;22.05;57.94
71514;DHT22;59335;46.652;21.272;2022-09-27T08:24:20;22.02;58.11
71514;DHT22;59335;46.652;21.272;2022-09-27T08:27:54;22.05;58.10
71514;DHT22;59335;46.652;21.272;2022-09-27T08:31:08;21.93;59.66
71514;DHT22;59335;46.652;21.272;2022-09-27T08:34:11;21.93;60.35
71514;DHT22;59335;46.652;21.272;2022-09-27T08:37:15;21.86;61.25
71514;DHT22;59335;46.652;21.272;2022-09-27T08:40:18;21.90;60.63
71514;DHT22;59335;46.652;21.272;2022-09-27T08:43:35;21.86;62.19
71514;DHT22;59335;46.652;21.272;2022-09-27T08:46:55;21.89;62.03
71514;DHT22;59335;46.652;21.272;2022-09-27T08:50:24;21.99;61.13
71514;DHT22;59335;46.652;21.272;2022-09-27T08:56:40;22.23;61.75
71514;DHT22;59335;46.652;21.272;2022-09-27T08:59:53;22.40;61.74
71514;DHT22;59335;46.652;21.272;2022-09-27T09:03:00;22.50;61.60
71514;DHT22;59335;46.652;21.272;2022-09-27T09:06:22;22.63;61.79
71514;DHT22;59335;46.652;21.272;2022-09-27T09:09:49;22.72;61.55
71514;DHT22;59335;46.652;21.272;2022-09-27T09:16:43;22.82;61.58
71514;DHT22;59335;46.652;21.272;2022-09-27T09:23:40;22.90;61.81
71514;DHT22;59335;46.652;21.272;2022-09-27T09:26:59;22.95;62.04
71514;DHT22;59335;46.652;21.272;2022-09-27T09:30:51;22.88;62.04
71514;DHT22;59335;46.652;21.272;2022-09-27T09:34:22;22.84;62.10
71514;DHT22;59335;46.652;21.272;2022-09-27T09:37:45;22.76;61.95
71514;DHT22;59335;46.652;21.272;2022-09-27T09:41:01;22.75;61.72
71514;DHT22;59335;46.652;21.272;2022-09-27T09:44:19;22.75;61.76
71514;DHT22;59335;46.652;21.272;2022-09-27T09:47:31;22.72;61.95
71514;DHT22;59335;46.652;21.272;2022-09-27T09:50:39;22.69;61.99
71514;DHT22;59335;46.652;21.272;2022-09-27T09:53:50;22.76;61.73
71514;DHT22;59335;46.652;21.272;2022-09-27T10:00:18;22.95;61.59
71514;DHT22;59335;46.652;21.272;2022-09-27T10:03:26;22.91;61.41
71514;DHT22;59335;46.652;21.272;2022-09-27T10:06:29;22.82;61.38
71514;DHT22;59335;46.652;21.272;2022-09-27T10:09:35;22.81;61.40
71514;DHT22;59335;46.652;21.272;2022-09-27T10:12:57;22.74;61.22
71514;DHT22;59335;46.652;21.272;2022-09-27T10:16:10;22.69;61.26
71514;DHT22;59335;46.652;21.272;2022-09-27T10:19:19;22.67;61.39
71514;DHT22;59335;46.652;21.272;2022-09-27T10:22:33;22.61;61.44
71514;DHT22;59335;46.652;21.272;2022-09-27T10:26:01;22.58;61.54
71514;DHT22;59335;46.652;21.272;2022-09-27T10:29:31;22.57;61.55
71514;DHT22;59335;46.652;21.272;2022-09-27T10:32:42;22.54;61.40
71514;DHT22;59335;46.652;21.272;2022-09-27T10:36:41;22.53;61.48
71514;DHT22;59335;46.652;21.272;2022-09-27T10:39:45;22.53;61.34
71514;DHT22;59335;46.652;21.272;2022-09-27T10:42:50;22.48;61.58
71514;DHT22;59335;46.652;21.272;2022-09-27T10:49:28;22.48;61.40
71514;DHT22;59335;46.652;21.272;2022-09-27T10:52:34;22.48;61.27
71514;DHT22;59335;46.652;21.272;2022-09-27T10:55:38;22.50;61.26
71514;DHT22;59335;46.652;21.272;2022-09-27T10:58:44;22.50;61.68
71514;DHT22;59335;46.652;21.272;2022-09-27T11:01:49;22.60;61.55
71514;DHT22;59335;46.652;21.272;2022-09-27T11:08:32;22.61;61.32
71514;DHT22;59335;46.652;21.272;2022-09-27T11:11:42;22.60;61.23
71514;DHT22;59335;46.652;21.272;2022-09-27T11:15:13;22.57;61.16
71514;DHT22;59335;46.652;21.272;2022-09-27T11:18:36;22.57;61.02
71514;DHT22;59335;46.652;21.272;2022-09-27T11:36:11;22.51;60.61
71514;DHT22;59335;46.652;21.272;2022-09-27T11:39:22;22.51;60.63
71514;DHT22;59335;46.652;21.272;2022-09-27T11:42:31;22.46;60.65
71514;DHT22;59335;46.652;21.272;2022-09-27T11:46:36;22.46;60.71
71514;DHT22;59335;46.652;21.272;2022-09-27T11:56:56;22.50;61.19
71514;DHT22;59335;46.652;21.272;2022-09-27T12:03:33;22.48;60.78
71514;DHT22;59335;46.652;21.272;2022-09-27T12:09:52;22.46;60.47
71514;DHT22;59335;46.652;21.272;2022-09-27T12:12:56;22.44;60.38
71514;DHT22;59335;46.652;21.272;2022-09-27T12:16:00;22.44;60.18
71514;DHT22;59335;46.652;21.272;2022-09-27T12:19:14;22.46;60.12
71514;DHT22;59335;46.652;21.272;2022-09-27T12:26:34;22.41;60.38
71514;DHT22;59335;46.652;21.272;2022-09-27T12:29:41;22.46;60.18
71514;DHT22;59335;46.652;21.272;2022-09-27T12:33:05;22.41;60.11
71514;DHT22;59335;46.652;21.272;2022-09-27T12:36:14;22.41;59.92
71514;DHT22;59335;46.652;21.272;2022-09-27T12:39:55;22.41;59.89
71514;DHT22;59335;46.652;21.272;2022-09-27T12:43:26;22.37;59.59
71514;DHT22;59335;46.652;21.272;2022-09-27T12:47:10;22.37;59.95
71514;DHT22;59335;46.652;21.272;2022-09-27T12:50:36;22.37;59.91
71514;DHT22;59335;46.652;21.272;2022-09-27T13:00:32;22.37;60.12
71514;DHT22;59335;46.652;21.272;2022-09-27T13:07:29;22.33;60.22
71514;DHT22;59335;46.652;21.272;2022-09-27T13:14:04;22.33;59.94
71514;DHT22;59335;46.652;21.272;2022-09-27T13:17:47;22.33;60.12
71514;DHT22;59335;46.652;21.272;2022-09-27T13:21:02;22.30;60.04
71514;DHT22;59335;46.652;21.272;2022-09-27T13:27:49;22.29;59.79
71514;DHT22;59335;46.652;21.272;2022-09-27T13:37:56;22.33;59.78
71514;DHT22;59335;46.652;21.272;2022-09-27T13:41:16;22.30;59.47
71514;DHT22;59335;46.652;21.272;2022-09-27T13:44:36;22.27;59.86
71514;DHT22;59335;46.652;21.272;2022-09-27T13:47:45;22.29;60.02
71514;DHT22;59335;46.652;21.272;2022-09-27T13:54:53;22.26;59.79
71514;DHT22;59335;46.652;21.272;2022-09-27T13:58:04;22.27;59.83
71514;DHT22;59335;46.652;21.272;2022-09-27T14:01:30;22.24;59.93
71514;DHT22;59335;46.652;21.272;2022-09-27T14:04:40;22.24;59.97
71514;DHT22;59335;46.652;21.272;2022-09-27T14:07:45;22.24;59.95
71514;DHT22;59335;46.652;21.272;2022-09-27T14:10:52;22.26;60.00
71514;DHT22;59335;46.652;21.272;2022-09-27T14:13:56;22.24;60.10
71514;DHT22;59335;46.652;21.272;2022-09-27T14:17:06;22.24;59.97
71514;DHT22;59335;46.652;21.272;2022-09-27T14:20:40;22.20;59.83
71514;DHT22;59335;46.652;21.272;2022-09-27T14:24:21;22.23;59.76
71514;DHT22;59335;46.652;21.272;2022-09-27T14:27:28;22.19;59.89
71514;DHT22;59335;46.652;21.272;2022-09-27T14:30:39;22.20;59.86
71514;DHT22;59335;46.652;21.272;2022-09-27T14:34:14;22.19;59.80
71514;DHT22;59335;46.652;21.272;2022-09-27T14:37:24;22.16;59.82
71514;DHT22;59335;46.652;21.272;2022-09-27T14:40:43;22.19;59.72
71514;DHT22;59335;46.652;21.272;2022-09-27T14:43:46;22.17;59.78
71514;DHT22;59335;46.652;21.272;2022-09-27T14:47:21;22.17;59.68
71514;DHT22;59335;46.652;21.272;2022-09-27T14:50:26;22.16;59.74
71514;DHT22;59335;46.652;21.272;2022-09-27T14:53:39;22.14;59.73
71514;DHT22;59335;46.652;21.272;2022-09-27T14:56:42;22.14;59.75
71514;DHT22;59335;46.652;21.272;2022-09-27T14:59:45;22.12;59.65
71514;DHT22;59335;46.652;21.272;2022-09-27T15:02:51;22.13;59.72
71514;DHT22;59335;46.652;21.272;2022-09-27T15:05:58;22.14;59.57
71514;DHT22;59335;46.652;21.272;2022-09-27T15:09:02;22.12;59.68
71514;DHT22;59335;46.652;21.272;2022-09-27T15:12:05;22.13;59.52
71514;DHT22;59335;46.652;21.272;2022-09-27T15:15:16;22.14;59.55
71514;DHT22;59335;46.652;21.272;2022-09-27T15:18:41;22.13;59.45
71514;DHT22;59335;46.652;21.272;2022-09-27T15:21:44;22.12;59.55
71514;DHT22;59335;46.652;21.272;2022-09-27T15:24:47;22.13;59.57
71514;DHT22;59335;46.652;21.272;2022-09-27T15:27:52;22.10;59.51
71514;DHT22;59335;46.652;21.272;2022-09-27T15:30:56;22.13;59.46
71514;DHT22;59335;46.652;21.272;2022-09-27T15:34:01;22.16;60.95
71514;DHT22;59335;46.652;21.272;2022-09-27T15:37:04;22.12;63.23
71514;DHT22;59335;46.652;21.272;2022-09-27T15:43:29;22.07;68.08
71514;DHT22;59335;46.652;21.272;2022-09-27T15:46:37;22.05;68.99
71514;DHT22;59335;46.652;21.272;2022-09-27T15:49:40;22.00;67.61
71514;DHT22;59335;46.652;21.272;2022-09-27T15:52:46;21.98;69.08
71514;DHT22;59335;46.652;21.272;2022-09-27T15:55:49;21.93;70.06
71514;DHT22;59335;46.652;21.272;2022-09-27T15:58:52;21.95;70.21
71514;DHT22;59335;46.652;21.272;2022-09-27T16:02:01;21.92;69.67
71514;DHT22;59335;46.652;21.272;2022-09-27T16:05:10;21.90;69.60
71514;DHT22;59335;46.652;21.272;2022-09-27T16:08:13;21.96;69.01
71514;DHT22;59335;46.652;21.272;2022-09-27T16:11:16;21.98;67.72
71514;DHT22;59335;46.652;21.272;2022-09-27T16:14:19;21.96;67.76
71514;DHT22;59335;46.652;21.272;2022-09-27T16:17:22;21.98;66.86
71514;DHT22;59335;46.652;21.272;2022-09-27T16:20:25;21.99;66.24
71514;DHT22;59335;46.652;21.272;2022-09-27T16:23:28;21.98;65.91
71514;DHT22;59335;46.652;21.272;2022-09-27T16:26:31;21.98;65.55
71514;DHT22;59335;46.652;21.272;2022-09-27T16:29:35;21.99;65.33
71514;DHT22;59335;46.652;21.272;2022-09-27T16:32:47;22.02;65.09
71514;DHT22;59335;46.652;21.272;2022-09-27T16:35:50;21.99;64.85
71514;DHT22;59335;46.652;21.272;2022-09-27T16:38:53;21.99;64.69
71514;DHT22;59335;46.652;21.272;2022-09-27T16:41:55;22.00;64.47
71514;DHT22;59335;46.652;21.272;2022-09-27T16:44:58;21.99;64.51
71514;DHT22;59335;46.652;21.272;2022-09-27T16:48:00;22.00;64.35
71514;DHT22;59335;46.652;21.272;2022-09-27T16:51:11;21.98;64.19
71514;DHT22;59335;46.652;21.272;2022-09-27T16:54:33;21.96;64.12
71514;DHT22;59335;46.652;21.272;2022-09-27T16:57:35;21.95;64.08
71514;DHT22;59335;46.652;21.272;2022-09-27T17:00:39;21.96;63.97
71514;DHT22;59335;46.652;21.272;2022-09-27T17:03:48;21.95;63.95
71514;DHT22;59335;46.652;21.272;2022-09-27T17:06:55;21.93;63.91
71514;DHT22;59335;46.652;21.272;2022-09-27T17:09:58;21.96;63.78
71514;DHT22;59335;46.652;21.272;2022-09-27T17:13:00;21.96;63.73
71514;DHT22;59335;46.652;21.272;2022-09-27T17:16:03;21.98;63.60
71514;DHT22;59335;46.652;21.272;2022-09-27T17:19:07;21.96;63.57
71514;DHT22;59335;46.652;21.272;2022-09-27T17:22:10;21.92;63.55
71514;DHT22;59335;46.652;21.272;2022-09-27T17:25:13;21.92;63.38
71514;DHT22;59335;46.652;21.272;2022-09-27T17:28:16;21.93;63.15
71514;DHT22;59335;46.652;21.272;2022-09-27T17:31:18;21.89;63.17
71514;DHT22;59335;46.652;21.272;2022-09-27T17:34:21;21.90;63.15
71514;DHT22;59335;46.652;21.272;2022-09-27T17:37:24;21.89;63.15
71514;DHT22;59335;46.652;21.272;2022-09-27T17:40:27;21.89;62.91
71514;DHT22;59335;46.652;21.272;2022-09-27T17:43:29;21.88;62.98
71514;DHT22;59335;46.652;21.272;2022-09-27T17:46:39;21.90;62.73
71514;DHT22;59335;46.652;21.272;2022-09-27T17:49:42;21.88;62.75
71514;DHT22;59335;46.652;21.272;2022-09-27T17:53:03;21.88;62.70
71514;DHT22;59335;46.652;21.272;2022-09-27T17:56:06;21.89;62.57
71514;DHT22;59335;46.652;21.272;2022-09-27T17:59:09;21.88;62.52
71514;DHT22;59335;46.652;21.272;2022-09-27T18:02:12;21.89;62.42
71514;DHT22;59335;46.652;21.272;2022-09-27T18:05:15;21.86;62.46
71514;DHT22;59335;46.652;21.272;2022-09-27T18:08:24;21.83;62.49
71514;DHT22;59335;46.652;21.272;2022-09-27T18:11:29;21.89;62.32
71514;DHT22;59335;46.652;21.272;2022-09-27T18:14:32;21.86;62.31
71514;DHT22;59335;46.652;21.272;2022-09-27T18:17:34;21.86;62.31
71514;DHT22;59335;46.652;21.272;2022-09-27T18:20:38;21.85;62.14
71514;DHT22;59335;46.652;21.272;2022-09-27T18:23:42;21.85;62.17
71514;DHT22;59335;46.652;21.272;2022-09-27T18:26:45;21.83;62.11
71514;DHT22;59335;46.652;21.272;2022-09-27T18:29:50;21.86;62.01
71514;DHT22;59335;46.652;21.272;2022-09-27T18:32:53;21.88;61.95
71514;DHT22;59335;46.652;21.272;2022-09-27T18:36:19;21.88;61.97
71514;DHT22;59335;46.652;21.272;2022-09-27T18:39:23;21.88;61.84
71514;DHT22;59335;46.652;21.272;2022-09-27T18:42:26;21.89;61.80
71514;DHT22;59335;46.652;21.272;2022-09-27T18:45:28;21.83;61.79
71514;DHT22;59335;46.652;21.272;2022-09-27T18:48:34;21.83;61.83
71514;DHT22;59335;46.652;21.272;2022-09-27T18:51:38;21.82;61.76
71514;DHT22;59335;46.652;21.272;2022-09-27T18:54:44;21.83;61.71
71514;DHT22;59335;46.652;21.272;2022-09-27T18:57:47;21.85;61.68
71514;DHT22;59335;46.652;21.272;2022-09-27T19:00:50;21.83;61.54
71514;DHT22;59335;46.652;21.272;2022-09-27T19:03:53;21.83;61.56
71514;DHT22;59335;46.652;21.272;2022-09-27T19:06:56;21.81;61.48
71514;DHT22;59335;46.652;21.272;2022-09-27T19:09:59;21.83;61.42
71514;DHT22;59335;46.652;21.272;2022-09-27T19:13:04;21.82;61.38
71514;DHT22;59335;46.652;21.272;2022-09-27T19:16:07;21.81;61.44
71514;DHT22;59335;46.652;21.272;2022-09-27T19:19:10;21.81;61.31
71514;DHT22;59335;46.652;21.272;2022-09-27T19:22:13;21.83;61.25
71514;DHT22;59335;46.652;21.272;2022-09-27T19:25:16;21.81;61.27
71514;DHT22;59335;46.652;21.272;2022-09-27T19:28:19;21.79;61.25
71514;DHT22;59335;46.652;21.272;2022-09-27T19:31:24;21.81;61.27
71514;DHT22;59335;46.652;21.272;2022-09-27T19:34:27;21.81;61.14
71514;DHT22;59335;46.652;21.272;2022-09-27T19:37:30;21.81;61.19
71514;DHT22;59335;46.652;21.272;2022-09-27T19:40:33;21.83;61.03
71514;DHT22;59335;46.652;21.272;2022-09-27T19:43:37;21.81;61.11
71514;DHT22;59335;46.652;21.272;2022-09-27T19:46:40;21.79;61.04
71514;DHT22;59335;46.652;21.272;2022-09-27T19:49:43;21.79;61.08
71514;DHT22;59335;46.652;21.272;2022-09-27T19:52:45;21.78;61.01
71514;DHT22;59335;46.652;21.272;2022-09-27T19:56:15;21.81;60.94
71514;DHT22;59335;46.652;21.272;2022-09-27T19:59:18;21.79;60.90
71514;DHT22;59335;46.652;21.272;2022-09-27T20:02:21;21.82;60.82
71514;DHT22;59335;46.652;21.272;2022-09-27T20:05:24;21.79;60.80
71514;DHT22;59335;46.652;21.272;2022-09-27T20:08:28;21.78;60.82
71514;DHT22;59335;46.652;21.272;2022-09-27T20:11:31;21.79;60.72
71514;DHT22;59335;46.652;21.272;2022-09-27T20:14:35;21.77;60.73
71514;DHT22;59335;46.652;21.272;2022-09-27T20:17:41;21.75;60.76
71514;DHT22;59335;46.652;21.272;2022-09-27T20:20:44;21.77;60.61
71514;DHT22;59335;46.652;21.272;2022-09-27T20:23:52;21.77;60.62
71514;DHT22;59335;46.652;21.272;2022-09-27T20:26:55;21.77;60.54
71514;DHT22;59335;46.652;21.272;2022-09-27T20:29:58;21.77;60.47
71514;DHT22;59335;46.652;21.272;2022-09-27T20:33:01;21.79;60.39
71514;DHT22;59335;46.652;21.272;2022-09-27T20:36:29;21.75;60.45
71514;DHT22;59335;46.652;21.272;2022-09-27T20:39:33;21.79;60.36
71514;DHT22;59335;46.652;21.272;2022-09-27T20:42:36;21.78;60.39
71514;DHT22;59335;46.652;21.272;2022-09-27T20:45:38;21.78;60.35
71514;DHT22;59335;46.652;21.272;2022-09-27T20:48:41;21.77;60.35
71514;DHT22;59335;46.652;21.272;2022-09-27T20:51:46;21.75;60.38
71514;DHT22;59335;46.652;21.272;2022-09-27T20:54:52;21.74;60.31
71514;DHT22;59335;46.652;21.272;2022-09-27T20:57:55;21.75;60.32
71514;DHT22;59335;46.652;21.272;2022-09-27T21:01:05;21.77;60.33
71514;DHT22;59335;46.652;21.272;2022-09-27T21:04:10;21.74;60.27
71514;DHT22;59335;46.652;21.272;2022-09-27T21:07:14;21.77;60.18
71514;DHT22;59335;46.652;21.272;2022-09-27T21:10:16;21.75;60.15
71514;DHT22;59335;46.652;21.272;2022-09-27T21:13:19;21.74;60.18
71514;DHT22;59335;46.652;21.272;2022-09-27T21:16:25;21.75;60.16
71514;DHT22;59335;46.652;21.272;2022-09-27T21:19:28;21.77;60.06
71514;DHT22;59335;46.652;21.272;2022-09-27T21:22:30;21.77;60.09
71514;DHT22;59335;46.652;21.272;2022-09-27T21:25:35;21.74;60.09
71514;DHT22;59335;46.652;21.272;2022-09-27T21:28:42;21.78;59.96
71514;DHT22;59335;46.652;21.272;2022-09-27T21:31:45;21.74;59.98
71514;DHT22;59335;46.652;21.272;2022-09-27T21:34:47;21.72;60.08
71514;DHT22;59335;46.652;21.272;2022-09-27T21:37:50;21.74;59.98
71514;DHT22;59335;46.652;21.272;2022-09-27T21:41:01;21.71;60.01
71514;DHT22;59335;46.652;21.272;2022-09-27T21:44:09;21.75;59.91